KHST Airport (Homestead Arb) Information

FAA: HST - ICAO: KHST

KHST Airport Location

State Florida
County Dade
City Homestead
KHST Airport is 3 miles east of Homestead, FL.
Latitude 25-29-18.7823N
Longitude 080-23-00.8391W
Elevation 5ft

KHST Airport METARs

METAR KHST 180736Z AUTO 34003KT 10SM -RA BKN019 OVC026 25/22 A2996 RMK AO2 RAB36 CIG 017V026 CIG 018 RWY06 SLP149
Altimeter 29.96"
Temperature 25.0°C (77.0°F)
Wind 340° at 3KT
Clouds broken at 1,900ft overcast at 2,600ft
Visibility 10.0mi
Time observed: 2021-10-18T07:36:00Z

KHST Airport Details

Status Operational
Activation August 1942
Ownership Military - Air Force
Usage Private
Chart MIAMI
ATC on-site Yes
Beacon schedule sunset-sunrise
Beacon color split clear green

KHST Airport Contacts

Owner USAF - HOMESTEAD ARB
Owner address 482 FIGHTER WING, 29050 CORAL SEA BLVD, HOMESTEAD ARB, FL 33039-1299
Owner phone 305-224-7072
Manager THOMAS GINTER
Manager address 3501 JOHNSON STREET, HOLLYWOOD, FL 33021
Manager phone 954-265-5544

KHST Airport (Homestead Arb) Radio Frequencies

KHST (Airport) Radio Frequencies

UNICOM N/A
Common traffic advisory frequency (CTAF) N/A